sensor_id;sensor_type;location;lat;lon;timestamp;P1;durP1;ratioP1;P2;durP2;ratioP2
18711;SDS011;9485;49.386;8.674;2023-04-03T00:03:15;2.80;;;2.60;;
18711;SDS011;9485;49.386;8.674;2023-04-03T00:08:36;2.23;;;2.13;;
18711;SDS011;9485;49.386;8.674;2023-04-03T00:13:58;2.47;;;2.10;;
18711;SDS011;9485;49.386;8.674;2023-04-03T00:19:20;2.60;;;1.83;;
18711;SDS011;9485;49.386;8.674;2023-04-03T00:24:41;2.40;;;2.20;;
18711;SDS011;9485;49.386;8.674;2023-04-03T00:30:02;2.10;;;2.00;;
18711;SDS011;9485;49.386;8.674;2023-04-03T00:35:25;4.43;;;2.60;;
18711;SDS011;9485;49.386;8.674;2023-04-03T00:40:47;2.20;;;2.00;;
18711;SDS011;9485;49.386;8.674;2023-04-03T00:46:09;3.37;;;2.13;;
18711;SDS011;9485;49.386;8.674;2023-04-03T00:51:30;2.40;;;2.10;;
18711;SDS011;9485;49.386;8.674;2023-04-03T00:56:51;2.40;;;2.20;;
18711;SDS011;9485;49.386;8.674;2023-04-03T01:02:15;2.97;;;2.03;;
18711;SDS011;9485;49.386;8.674;2023-04-03T01:07:39;2.40;;;2.17;;
18711;SDS011;9485;49.386;8.674;2023-04-03T01:13:00;2.17;;;2.07;;
18711;SDS011;9485;49.386;8.674;2023-04-03T01:18:21;2.30;;;2.10;;
18711;SDS011;9485;49.386;8.674;2023-04-03T01:23:49;2.33;;;2.10;;
18711;SDS011;9485;49.386;8.674;2023-04-03T01:29:33;1.80;;;1.70;;
18711;SDS011;9485;49.386;8.674;2023-04-03T01:34:55;3.50;;;2.13;;
18711;SDS011;9485;49.386;8.674;2023-04-03T01:40:16;1.90;;;1.80;;
18711;SDS011;9485;49.386;8.674;2023-04-03T01:45:38;2.00;;;1.90;;
18711;SDS011;9485;49.386;8.674;2023-04-03T01:51:00;2.00;;;1.80;;
18711;SDS011;9485;49.386;8.674;2023-04-03T01:56:21;1.97;;;1.83;;
18711;SDS011;9485;49.386;8.674;2023-04-03T02:01:43;1.93;;;1.83;;
18711;SDS011;9485;49.386;8.674;2023-04-03T02:07:07;2.40;;;1.80;;
18711;SDS011;9485;49.386;8.674;2023-04-03T02:12:27;2.10;;;2.00;;
18711;SDS011;9485;49.386;8.674;2023-04-03T02:17:48;2.20;;;2.00;;
18711;SDS011;9485;49.386;8.674;2023-04-03T02:23:10;2.23;;;2.03;;
18711;SDS011;9485;49.386;8.674;2023-04-03T02:28:31;2.13;;;1.90;;
18711;SDS011;9485;49.386;8.674;2023-04-03T02:33:52;2.00;;;1.73;;
18711;SDS011;9485;49.386;8.674;2023-04-03T02:39:14;2.00;;;1.90;;
18711;SDS011;9485;49.386;8.674;2023-04-03T02:44:35;1.90;;;1.60;;
18711;SDS011;9485;49.386;8.674;2023-04-03T02:49:56;2.53;;;2.10;;
18711;SDS011;9485;49.386;8.674;2023-04-03T02:55:18;3.83;;;1.80;;
18711;SDS011;9485;49.386;8.674;2023-04-03T03:00:41;2.53;;;1.90;;
18711;SDS011;9485;49.386;8.674;2023-04-03T03:06:04;1.73;;;1.63;;
18711;SDS011;9485;49.386;8.674;2023-04-03T03:11:28;2.00;;;1.90;;
18711;SDS011;9485;49.386;8.674;2023-04-03T03:16:49;2.07;;;1.87;;
18711;SDS011;9485;49.386;8.674;2023-04-03T03:22:10;2.00;;;1.87;;
18711;SDS011;9485;49.386;8.674;2023-04-03T03:27:32;1.87;;;1.63;;
18711;SDS011;9485;49.386;8.674;2023-04-03T03:32:53;3.33;;;1.77;;
18711;SDS011;9485;49.386;8.674;2023-04-03T03:38:13;2.20;;;2.00;;
18711;SDS011;9485;49.386;8.674;2023-04-03T03:43:35;2.27;;;2.03;;
18711;SDS011;9485;49.386;8.674;2023-04-03T03:48:59;3.13;;;2.10;;
18711;SDS011;9485;49.386;8.674;2023-04-03T03:54:20;2.03;;;1.90;;
18711;SDS011;9485;49.386;8.674;2023-04-03T03:59:43;4.17;;;1.93;;
18711;SDS011;9485;49.386;8.674;2023-04-03T04:05:04;1.80;;;1.70;;
18711;SDS011;9485;49.386;8.674;2023-04-03T04:10:26;2.00;;;1.90;;
18711;SDS011;9485;49.386;8.674;2023-04-03T04:15:49;1.73;;;1.63;;
18711;SDS011;9485;49.386;8.674;2023-04-03T04:21:10;3.10;;;1.77;;
18711;SDS011;9485;49.386;8.674;2023-04-03T04:26:31;1.63;;;1.53;;
18711;SDS011;9485;49.386;8.674;2023-04-03T04:31:54;1.90;;;1.80;;
18711;SDS011;9485;49.386;8.674;2023-04-03T04:37:16;2.03;;;1.93;;
18711;SDS011;9485;49.386;8.674;2023-04-03T04:42:40;2.03;;;1.80;;
18711;SDS011;9485;49.386;8.674;2023-04-03T04:48:02;2.73;;;2.10;;
18711;SDS011;9485;49.386;8.674;2023-04-03T04:53:23;2.20;;;2.00;;
18711;SDS011;9485;49.386;8.674;2023-04-03T04:58:44;2.00;;;1.90;;
18711;SDS011;9485;49.386;8.674;2023-04-03T05:04:07;2.30;;;2.10;;
18711;SDS011;9485;49.386;8.674;2023-04-03T05:09:28;2.30;;;2.10;;
18711;SDS011;9485;49.386;8.674;2023-04-03T05:14:49;2.77;;;2.10;;
18711;SDS011;9485;49.386;8.674;2023-04-03T05:20:11;2.10;;;1.90;;
18711;SDS011;9485;49.386;8.674;2023-04-03T05:25:34;2.57;;;2.30;;
18711;SDS011;9485;49.386;8.674;2023-04-03T05:30:58;2.90;;;2.27;;
18711;SDS011;9485;49.386;8.674;2023-04-03T05:36:26;2.27;;;2.07;;
18711;SDS011;9485;49.386;8.674;2023-04-03T05:41:53;2.40;;;1.97;;
18711;SDS011;9485;49.386;8.674;2023-04-03T05:47:14;2.63;;;2.00;;
18711;SDS011;9485;49.386;8.674;2023-04-03T05:52:37;2.93;;;2.40;;
18711;SDS011;9485;49.386;8.674;2023-04-03T05:58:04;2.50;;;2.30;;
18711;SDS011;9485;49.386;8.674;2023-04-03T06:03:26;2.50;;;2.30;;
18711;SDS011;9485;49.386;8.674;2023-04-03T06:08:48;3.37;;;2.60;;
18711;SDS011;9485;49.386;8.674;2023-04-03T06:14:10;3.13;;;2.73;;
18711;SDS011;9485;49.386;8.674;2023-04-03T06:19:32;2.67;;;2.47;;
18711;SDS011;9485;49.386;8.674;2023-04-03T06:24:54;2.80;;;2.60;;
18711;SDS011;9485;49.386;8.674;2023-04-03T06:30:15;3.17;;;2.87;;
18711;SDS011;9485;49.386;8.674;2023-04-03T06:35:36;3.57;;;2.70;;
18711;SDS011;9485;49.386;8.674;2023-04-03T06:40:59;3.13;;;2.50;;
18711;SDS011;9485;49.386;8.674;2023-04-03T06:46:20;3.50;;;2.83;;
18711;SDS011;9485;49.386;8.674;2023-04-03T06:51:42;2.90;;;2.60;;
18711;SDS011;9485;49.386;8.674;2023-04-03T06:57:04;3.73;;;2.80;;
18711;SDS011;9485;49.386;8.674;2023-04-03T07:02:26;2.70;;;2.50;;
18711;SDS011;9485;49.386;8.674;2023-04-03T07:07:47;2.60;;;2.40;;
18711;SDS011;9485;49.386;8.674;2023-04-03T07:13:10;2.80;;;2.33;;
18711;SDS011;9485;49.386;8.674;2023-04-03T07:18:31;3.00;;;2.33;;
18711;SDS011;9485;49.386;8.674;2023-04-03T07:23:52;3.27;;;2.17;;
18711;SDS011;9485;49.386;8.674;2023-04-03T07:29:15;2.73;;;2.00;;
18711;SDS011;9485;49.386;8.674;2023-04-03T07:34:35;3.93;;;2.10;;
18711;SDS011;9485;49.386;8.674;2023-04-03T07:39:56;2.23;;;1.87;;
18711;SDS011;9485;49.386;8.674;2023-04-03T07:45:19;2.00;;;1.80;;
18711;SDS011;9485;49.386;8.674;2023-04-03T07:50:41;2.80;;;1.60;;
18711;SDS011;9485;49.386;8.674;2023-04-03T07:56:02;4.03;;;1.67;;
18711;SDS011;9485;49.386;8.674;2023-04-03T08:01:25;2.57;;;1.70;;
18711;SDS011;9485;49.386;8.674;2023-04-03T08:06:46;2.00;;;1.40;;
18711;SDS011;9485;49.386;8.674;2023-04-03T08:12:07;1.50;;;1.40;;
18711;SDS011;9485;49.386;8.674;2023-04-03T08:17:31;2.00;;;1.53;;
18711;SDS011;9485;49.386;8.674;2023-04-03T08:22:52;1.30;;;1.20;;
18711;SDS011;9485;49.386;8.674;2023-04-03T08:28:15;1.77;;;1.30;;
18711;SDS011;9485;49.386;8.674;2023-04-03T08:33:37;1.37;;;1.10;;
18711;SDS011;9485;49.386;8.674;2023-04-03T08:39:00;1.67;;;1.33;;
18711;SDS011;9485;49.386;8.674;2023-04-03T08:44:23;1.67;;;1.20;;
18711;SDS011;9485;49.386;8.674;2023-04-03T08:49:58;1.33;;;1.03;;
18711;SDS011;9485;49.386;8.674;2023-04-03T08:55:23;2.80;;;1.77;;
18711;SDS011;9485;49.386;8.674;2023-04-03T09:00:48;1.50;;;1.30;;
18711;SDS011;9485;49.386;8.674;2023-04-03T09:06:15;1.87;;;1.27;;
18711;SDS011;9485;49.386;8.674;2023-04-03T09:11:44;1.87;;;1.27;;
18711;SDS011;9485;49.386;8.674;2023-04-03T09:17:19;1.50;;;1.40;;
18711;SDS011;9485;49.386;8.674;2023-04-03T09:22:53;1.20;;;1.10;;
18711;SDS011;9485;49.386;8.674;2023-04-03T09:28:14;2.40;;;1.20;;
18711;SDS011;9485;49.386;8.674;2023-04-03T09:33:35;1.50;;;1.00;;
18711;SDS011;9485;49.386;8.674;2023-04-03T09:39:03;1.47;;;1.10;;
18711;SDS011;9485;49.386;8.674;2023-04-03T09:44:27;1.30;;;1.20;;
18711;SDS011;9485;49.386;8.674;2023-04-03T09:49:54;1.37;;;1.13;;
18711;SDS011;9485;49.386;8.674;2023-04-03T09:55:43;0.87;;;0.87;;
18711;SDS011;9485;49.386;8.674;2023-04-03T10:01:05;1.77;;;1.23;;
18711;SDS011;9485;49.386;8.674;2023-04-03T10:06:41;2.33;;;1.23;;
18711;SDS011;9485;49.386;8.674;2023-04-03T10:12:07;2.30;;;1.07;;
18711;SDS011;9485;49.386;8.674;2023-04-03T10:17:37;1.67;;;1.30;;
18711;SDS011;9485;49.386;8.674;2023-04-03T10:23:15;1.70;;;1.13;;
18711;SDS011;9485;49.386;8.674;2023-04-03T10:28:42;1.33;;;1.17;;
18711;SDS011;9485;49.386;8.674;2023-04-03T10:34:14;1.05;;;0.80;;
18711;SDS011;9485;49.386;8.674;2023-04-03T10:39:45;1.55;;;1.10;;
18711;SDS011;9485;49.386;8.674;2023-04-03T10:45:18;1.13;;;1.00;;
18711;SDS011;9485;49.386;8.674;2023-04-03T10:50:47;1.50;;;0.90;;
18711;SDS011;9485;49.386;8.674;2023-04-03T10:56:19;1.00;;;0.90;;
18711;SDS011;9485;49.386;8.674;2023-04-03T11:01:52;1.97;;;1.10;;
18711;SDS011;9485;49.386;8.674;2023-04-03T11:07:19;1.77;;;0.93;;
18711;SDS011;9485;49.386;8.674;2023-04-03T11:12:46;1.40;;;1.10;;
18711;SDS011;9485;49.386;8.674;2023-04-03T11:18:14;1.13;;;1.03;;
18711;SDS011;9485;49.386;8.674;2023-04-03T11:23:41;2.57;;;1.00;;
18711;SDS011;9485;49.386;8.674;2023-04-03T11:29:06;2.13;;;1.43;;
18711;SDS011;9485;49.386;8.674;2023-04-03T11:34:34;1.50;;;1.00;;
18711;SDS011;9485;49.386;8.674;2023-04-03T11:40:02;1.67;;;1.27;;
18711;SDS011;9485;49.386;8.674;2023-04-03T11:45:35;1.13;;;1.03;;
18711;SDS011;9485;49.386;8.674;2023-04-03T11:57:22;1.30;;;1.20;;
18711;SDS011;9485;49.386;8.674;2023-04-03T12:09:34;1.50;;;1.30;;
18711;SDS011;9485;49.386;8.674;2023-04-03T12:15:24;1.50;;;1.40;;
18711;SDS011;9485;49.386;8.674;2023-04-03T12:21:12;1.63;;;1.50;;
18711;SDS011;9485;49.386;8.674;2023-04-03T12:26:40;1.60;;;1.50;;
18711;SDS011;9485;49.386;8.674;2023-04-03T12:32:11;1.80;;;1.70;;
18711;SDS011;9485;49.386;8.674;2023-04-03T12:38:16;2.57;;;1.53;;
18711;SDS011;9485;49.386;8.674;2023-04-03T12:44:22;1.50;;;1.30;;
18711;SDS011;9485;49.386;8.674;2023-04-03T12:50:04;2.03;;;1.50;;
18711;SDS011;9485;49.386;8.674;2023-04-03T12:55:40;1.60;;;1.47;;
18711;SDS011;9485;49.386;8.674;2023-04-03T13:01:03;1.40;;;1.30;;
18711;SDS011;9485;49.386;8.674;2023-04-03T13:06:32;2.07;;;1.70;;
18711;SDS011;9485;49.386;8.674;2023-04-03T13:11:59;2.67;;;1.40;;
18711;SDS011;9485;49.386;8.674;2023-04-03T13:17:32;3.40;;;1.40;;
18711;SDS011;9485;49.386;8.674;2023-04-03T13:22:59;3.10;;;1.60;;
18711;SDS011;9485;49.386;8.674;2023-04-03T13:28:23;1.63;;;1.27;;
18711;SDS011;9485;49.386;8.674;2023-04-03T13:33:52;3.20;;;1.97;;
18711;SDS011;9485;49.386;8.674;2023-04-03T13:39:21;2.33;;;1.70;;
18711;SDS011;9485;49.386;8.674;2023-04-03T13:44:45;1.50;;;1.40;;
18711;SDS011;9485;49.386;8.674;2023-04-03T13:50:15;2.33;;;1.53;;
18711;SDS011;9485;49.386;8.674;2023-04-03T13:55:51;1.80;;;1.37;;
18711;SDS011;9485;49.386;8.674;2023-04-03T14:01:21;2.07;;;1.40;;
18711;SDS011;9485;49.386;8.674;2023-04-03T14:06:44;1.37;;;1.20;;
18711;SDS011;9485;49.386;8.674;2023-04-03T14:12:12;1.67;;;1.53;;
18711;SDS011;9485;49.386;8.674;2023-04-03T14:17:38;2.90;;;1.23;;
18711;SDS011;9485;49.386;8.674;2023-04-03T14:23:02;2.50;;;1.40;;
18711;SDS011;9485;49.386;8.674;2023-04-03T14:28:23;1.93;;;1.50;;
18711;SDS011;9485;49.386;8.674;2023-04-03T14:33:44;1.83;;;1.40;;
18711;SDS011;9485;49.386;8.674;2023-04-03T14:39:08;1.50;;;1.40;;
18711;SDS011;9485;49.386;8.674;2023-04-03T14:44:35;1.50;;;1.27;;
18711;SDS011;9485;49.386;8.674;2023-04-03T14:49:56;1.20;;;1.10;;
18711;SDS011;9485;49.386;8.674;2023-04-03T14:55:20;2.00;;;1.27;;
18711;SDS011;9485;49.386;8.674;2023-04-03T15:00:43;1.27;;;1.17;;
18711;SDS011;9485;49.386;8.674;2023-04-03T15:06:04;1.70;;;1.47;;
18711;SDS011;9485;49.386;8.674;2023-04-03T15:11:27;2.73;;;1.33;;
18711;SDS011;9485;49.386;8.674;2023-04-03T15:16:48;1.60;;;1.33;;
18711;SDS011;9485;49.386;8.674;2023-04-03T15:22:10;2.83;;;1.70;;
18711;SDS011;9485;49.386;8.674;2023-04-03T15:27:36;1.70;;;1.60;;
18711;SDS011;9485;49.386;8.674;2023-04-03T15:32:59;1.87;;;1.57;;
18711;SDS011;9485;49.386;8.674;2023-04-03T15:38:20;2.17;;;1.40;;
18711;SDS011;9485;49.386;8.674;2023-04-03T15:43:42;1.50;;;1.30;;
18711;SDS011;9485;49.386;8.674;2023-04-03T15:49:03;1.23;;;1.13;;
18711;SDS011;9485;49.386;8.674;2023-04-03T15:54:27;1.53;;;1.40;;
18711;SDS011;9485;49.386;8.674;2023-04-03T15:59:53;2.40;;;1.20;;
18711;SDS011;9485;49.386;8.674;2023-04-03T16:05:15;1.63;;;1.23;;
18711;SDS011;9485;49.386;8.674;2023-04-03T16:10:37;1.43;;;1.13;;
18711;SDS011;9485;49.386;8.674;2023-04-03T16:16:00;1.40;;;1.20;;
18711;SDS011;9485;49.386;8.674;2023-04-03T16:21:22;1.77;;;0.93;;
18711;SDS011;9485;49.386;8.674;2023-04-03T16:26:44;2.37;;;1.30;;
18711;SDS011;9485;49.386;8.674;2023-04-03T16:32:06;1.93;;;1.30;;
18711;SDS011;9485;49.386;8.674;2023-04-03T16:37:28;1.30;;;1.17;;
18711;SDS011;9485;49.386;8.674;2023-04-03T16:42:49;2.83;;;1.33;;
18711;SDS011;9485;49.386;8.674;2023-04-03T16:48:11;1.80;;;1.23;;
18711;SDS011;9485;49.386;8.674;2023-04-03T16:53:32;1.60;;;1.30;;
18711;SDS011;9485;49.386;8.674;2023-04-03T16:58:54;1.97;;;1.50;;
18711;SDS011;9485;49.386;8.674;2023-04-03T17:04:17;1.63;;;1.40;;
18711;SDS011;9485;49.386;8.674;2023-04-03T17:09:40;1.73;;;1.33;;
18711;SDS011;9485;49.386;8.674;2023-04-03T17:15:01;1.90;;;1.27;;
18711;SDS011;9485;49.386;8.674;2023-04-03T17:20:24;1.97;;;1.60;;
18711;SDS011;9485;49.386;8.674;2023-04-03T17:25:45;1.40;;;1.30;;
18711;SDS011;9485;49.386;8.674;2023-04-03T17:31:06;1.77;;;1.63;;
18711;SDS011;9485;49.386;8.674;2023-04-03T17:36:29;2.67;;;1.40;;
18711;SDS011;9485;49.386;8.674;2023-04-03T17:41:51;1.53;;;1.33;;
18711;SDS011;9485;49.386;8.674;2023-04-03T17:47:12;1.60;;;1.50;;
18711;SDS011;9485;49.386;8.674;2023-04-03T17:52:41;1.83;;;1.10;;
18711;SDS011;9485;49.386;8.674;2023-04-03T17:58:02;1.53;;;1.30;;
18711;SDS011;9485;49.386;8.674;2023-04-03T18:03:23;1.40;;;1.30;;
18711;SDS011;9485;49.386;8.674;2023-04-03T18:08:46;1.50;;;1.40;;
18711;SDS011;9485;49.386;8.674;2023-04-03T18:14:09;1.50;;;1.40;;
18711;SDS011;9485;49.386;8.674;2023-04-03T18:19:35;1.70;;;1.60;;
18711;SDS011;9485;49.386;8.674;2023-04-03T18:24:58;1.60;;;1.50;;
18711;SDS011;9485;49.386;8.674;2023-04-03T18:30:19;4.57;;;2.23;;
18711;SDS011;9485;49.386;8.674;2023-04-03T18:35:44;4.73;;;2.80;;
18711;SDS011;9485;49.386;8.674;2023-04-03T18:41:06;4.07;;;2.83;;
18711;SDS011;9485;49.386;8.674;2023-04-03T18:46:28;2.80;;;2.17;;
18711;SDS011;9485;49.386;8.674;2023-04-03T18:51:49;2.60;;;1.97;;
18711;SDS011;9485;49.386;8.674;2023-04-03T18:57:12;1.90;;;1.80;;
18711;SDS011;9485;49.386;8.674;2023-04-03T19:02:32;3.10;;;2.10;;
18711;SDS011;9485;49.386;8.674;2023-04-03T19:07:54;3.53;;;1.83;;
18711;SDS011;9485;49.386;8.674;2023-04-03T19:13:18;2.43;;;1.67;;
18711;SDS011;9485;49.386;8.674;2023-04-03T19:18:38;2.90;;;1.60;;
18711;SDS011;9485;49.386;8.674;2023-04-03T19:23:59;2.60;;;1.57;;
18711;SDS011;9485;49.386;8.674;2023-04-03T19:29:21;2.33;;;1.50;;
18711;SDS011;9485;49.386;8.674;2023-04-03T19:34:42;2.53;;;1.30;;
18711;SDS011;9485;49.386;8.674;2023-04-03T19:40:03;2.23;;;1.50;;
18711;SDS011;9485;49.386;8.674;2023-04-03T19:45:26;2.57;;;1.60;;
18711;SDS011;9485;49.386;8.674;2023-04-03T19:50:48;1.73;;;1.30;;
18711;SDS011;9485;49.386;8.674;2023-04-03T19:56:09;1.47;;;1.33;;
18711;SDS011;9485;49.386;8.674;2023-04-03T20:01:31;2.80;;;1.53;;
18711;SDS011;9485;49.386;8.674;2023-04-03T20:06:53;2.53;;;1.50;;
18711;SDS011;9485;49.386;8.674;2023-04-03T20:12:14;1.67;;;1.40;;
18711;SDS011;9485;49.386;8.674;2023-04-03T20:17:36;1.80;;;1.40;;
18711;SDS011;9485;49.386;8.674;2023-04-03T20:22:58;1.57;;;1.37;;
18711;SDS011;9485;49.386;8.674;2023-04-03T20:28:19;1.73;;;1.40;;
18711;SDS011;9485;49.386;8.674;2023-04-03T20:33:41;1.30;;;1.20;;
18711;SDS011;9485;49.386;8.674;2023-04-03T20:39:02;1.40;;;1.30;;
18711;SDS011;9485;49.386;8.674;2023-04-03T20:44:23;1.60;;;1.50;;
18711;SDS011;9485;49.386;8.674;2023-04-03T20:49:45;1.37;;;1.27;;
18711;SDS011;9485;49.386;8.674;2023-04-03T20:55:07;1.83;;;1.47;;
18711;SDS011;9485;49.386;8.674;2023-04-03T21:00:29;1.47;;;1.37;;
18711;SDS011;9485;49.386;8.674;2023-04-03T21:22:57;2.40;;;1.60;;
18711;SDS011;9485;49.386;8.674;2023-04-03T21:28:18;3.03;;;1.80;;
18711;SDS011;9485;49.386;8.674;2023-04-03T21:33:39;2.07;;;1.60;;
18711;SDS011;9485;49.386;8.674;2023-04-03T21:39:01;2.67;;;1.63;;
18711;SDS011;9485;49.386;8.674;2023-04-03T21:44:22;2.73;;;1.53;;
18711;SDS011;9485;49.386;8.674;2023-04-03T21:49:44;3.67;;;1.70;;
18711;SDS011;9485;49.386;8.674;2023-04-03T21:55:08;3.03;;;1.70;;
18711;SDS011;9485;49.386;8.674;2023-04-03T22:00:29;1.97;;;1.70;;
18711;SDS011;9485;49.386;8.674;2023-04-03T22:05:51;2.67;;;1.70;;
18711;SDS011;9485;49.386;8.674;2023-04-03T22:11:14;2.67;;;1.80;;
18711;SDS011;9485;49.386;8.674;2023-04-03T22:16:36;1.70;;;1.60;;
18711;SDS011;9485;49.386;8.674;2023-04-03T22:21:57;4.70;;;1.80;;
18711;SDS011;9485;49.386;8.674;2023-04-03T22:27:23;1.40;;;1.30;;
18711;SDS011;9485;49.386;8.674;2023-04-03T22:32:44;2.57;;;1.70;;
18711;SDS011;9485;49.386;8.674;2023-04-03T22:38:05;2.00;;;1.60;;
18711;SDS011;9485;49.386;8.674;2023-04-03T22:43:27;3.03;;;1.70;;
18711;SDS011;9485;49.386;8.674;2023-04-03T22:48:49;2.00;;;1.87;;
18711;SDS011;9485;49.386;8.674;2023-04-03T22:54:10;4.13;;;1.83;;
18711;SDS011;9485;49.386;8.674;2023-04-03T22:59:32;2.73;;;1.60;;
18711;SDS011;9485;49.386;8.674;2023-04-03T23:04:53;2.37;;;1.80;;
18711;SDS011;9485;49.386;8.674;2023-04-03T23:10:13;2.30;;;1.80;;
18711;SDS011;9485;49.386;8.674;2023-04-03T23:15:37;2.90;;;1.70;;
18711;SDS011;9485;49.386;8.674;2023-04-03T23:20:58;2.70;;;2.13;;
18711;SDS011;9485;49.386;8.674;2023-04-03T23:26:21;4.47;;;1.87;;
18711;SDS011;9485;49.386;8.674;2023-04-03T23:31:42;2.30;;;1.90;;
18711;SDS011;9485;49.386;8.674;2023-04-03T23:37:03;4.60;;;1.97;;
18711;SDS011;9485;49.386;8.674;2023-04-03T23:42:25;2.00;;;1.87;;
18711;SDS011;9485;49.386;8.674;2023-04-03T23:47:47;2.10;;;1.60;;
18711;SDS011;9485;49.386;8.674;2023-04-03T23:53:08;2.43;;;1.57;;
18711;SDS011;9485;49.386;8.674;2023-04-03T23:58:30;2.00;;;1.77;;
